sensor_id;sensor_type;location;lat;lon;timestamp;temperature;humidity
5560;DHT22;2803;47.916;8.074;2023-08-01T00:01:59;20.00;99.90
5560;DHT22;2803;47.916;8.074;2023-08-01T00:04:25;20.10;99.90
5560;DHT22;2803;47.916;8.074;2023-08-01T00:06:52;20.20;99.90
5560;DHT22;2803;47.916;8.074;2023-08-01T00:09:19;20.40;99.90
5560;DHT22;2803;47.916;8.074;2023-08-01T00:11:45;20.30;99.90
5560;DHT22;2803;47.916;8.074;2023-08-01T00:14:13;20.30;99.90
5560;DHT22;2803;47.916;8.074;2023-08-01T00:16:40;20.10;99.90
5560;DHT22;2803;47.916;8.074;2023-08-01T00:19:07;20.20;99.90
5560;DHT22;2803;47.916;8.074;2023-08-01T00:21:33;19.80;99.90
5560;DHT22;2803;47.916;8.074;2023-08-01T00:24:00;19.80;99.90
5560;DHT22;2803;47.916;8.074;2023-08-01T00:26:27;19.80;99.90
5560;DHT22;2803;47.916;8.074;2023-08-01T00:28:54;20.10;99.90
5560;DHT22;2803;47.916;8.074;2023-08-01T00:31:22;20.00;99.90
5560;DHT22;2803;47.916;8.074;2023-08-01T00:33:48;20.20;99.90
5560;DHT22;2803;47.916;8.074;2023-08-01T00:36:15;20.40;99.90
5560;DHT22;2803;47.916;8.074;2023-08-01T00:38:43;20.40;99.90
5560;DHT22;2803;47.916;8.074;2023-08-01T00:41:10;20.20;99.90
5560;DHT22;2803;47.916;8.074;2023-08-01T00:43:37;20.20;99.90
5560;DHT22;2803;47.916;8.074;2023-08-01T00:46:05;20.40;99.90
5560;DHT22;2803;47.916;8.074;2023-08-01T00:48:33;20.50;99.90
5560;DHT22;2803;47.916;8.074;2023-08-01T00:51:03;20.60;99.90
5560;DHT22;2803;47.916;8.074;2023-08-01T00:53:31;20.50;99.90
5560;DHT22;2803;47.916;8.074;2023-08-01T00:55:58;19.90;99.90
5560;DHT22;2803;47.916;8.074;2023-08-01T00:58:25;19.90;99.90
5560;DHT22;2803;47.916;8.074;2023-08-01T01:00:51;20.20;99.90
5560;DHT22;2803;47.916;8.074;2023-08-01T01:03:18;20.40;99.90
5560;DHT22;2803;47.916;8.074;2023-08-01T01:05:53;20.40;99.90
5560;DHT22;2803;47.916;8.074;2023-08-01T01:08:20;19.90;99.90
5560;DHT22;2803;47.916;8.074;2023-08-01T01:10:47;20.20;99.90
5560;DHT22;2803;47.916;8.074;2023-08-01T01:13:14;20.40;99.90
5560;DHT22;2803;47.916;8.074;2023-08-01T01:15:40;20.50;99.90
5560;DHT22;2803;47.916;8.074;2023-08-01T01:18:07;20.50;99.90
5560;DHT22;2803;47.916;8.074;2023-08-01T01:20:36;20.50;99.90
5560;DHT22;2803;47.916;8.074;2023-08-01T01:23:04;20.60;99.90
5560;DHT22;2803;47.916;8.074;2023-08-01T01:25:32;20.40;99.90
5560;DHT22;2803;47.916;8.074;2023-08-01T01:27:59;20.30;99.90
5560;DHT22;2803;47.916;8.074;2023-08-01T01:30:28;20.20;99.90
5560;DHT22;2803;47.916;8.074;2023-08-01T01:32:55;20.30;99.90
5560;DHT22;2803;47.916;8.074;2023-08-01T01:35:22;20.30;99.90
5560;DHT22;2803;47.916;8.074;2023-08-01T01:37:50;20.20;99.90
5560;DHT22;2803;47.916;8.074;2023-08-01T01:40:16;20.30;99.90
5560;DHT22;2803;47.916;8.074;2023-08-01T01:42:44;20.20;99.90
5560;DHT22;2803;47.916;8.074;2023-08-01T01:45:11;20.30;99.90
5560;DHT22;2803;47.916;8.074;2023-08-01T01:47:38;19.80;99.90
5560;DHT22;2803;47.916;8.074;2023-08-01T01:50:05;20.00;99.90
5560;DHT22;2803;47.916;8.074;2023-08-01T01:52:32;20.10;99.90
5560;DHT22;2803;47.916;8.074;2023-08-01T01:55:00;20.40;99.90
5560;DHT22;2803;47.916;8.074;2023-08-01T01:57:27;20.40;99.90
5560;DHT22;2803;47.916;8.074;2023-08-01T01:59:53;20.00;99.90
5560;DHT22;2803;47.916;8.074;2023-08-01T02:02:20;20.00;99.90
5560;DHT22;2803;47.916;8.074;2023-08-01T02:04:47;20.20;99.90
5560;DHT22;2803;47.916;8.074;2023-08-01T02:07:14;20.20;99.90
5560;DHT22;2803;47.916;8.074;2023-08-01T02:09:41;20.10;99.90
5560;DHT22;2803;47.916;8.074;2023-08-01T02:12:09;20.00;99.90
5560;DHT22;2803;47.916;8.074;2023-08-01T02:14:39;19.70;99.90
5560;DHT22;2803;47.916;8.074;2023-08-01T02:17:06;19.60;99.90
5560;DHT22;2803;47.916;8.074;2023-08-01T02:19:32;19.30;99.90
5560;DHT22;2803;47.916;8.074;2023-08-01T02:21:59;19.20;99.90
5560;DHT22;2803;47.916;8.074;2023-08-01T02:24:26;19.00;99.90
5560;DHT22;2803;47.916;8.074;2023-08-01T02:26:52;19.00;99.90
5560;DHT22;2803;47.916;8.074;2023-08-01T02:29:20;19.20;99.90
5560;DHT22;2803;47.916;8.074;2023-08-01T02:31:47;19.10;99.90
5560;DHT22;2803;47.916;8.074;2023-08-01T02:34:14;18.90;99.90
5560;DHT22;2803;47.916;8.074;2023-08-01T02:36:40;19.20;99.90
5560;DHT22;2803;47.916;8.074;2023-08-01T02:39:07;19.30;99.90
5560;DHT22;2803;47.916;8.074;2023-08-01T02:41:33;19.50;99.90
5560;DHT22;2803;47.916;8.074;2023-08-01T02:44:01;19.50;99.90
5560;DHT22;2803;47.916;8.074;2023-08-01T02:46:29;19.10;99.90
5560;DHT22;2803;47.916;8.074;2023-08-01T02:48:56;18.80;99.90
5560;DHT22;2803;47.916;8.074;2023-08-01T02:51:23;18.80;99.90
5560;DHT22;2803;47.916;8.074;2023-08-01T02:53:50;19.00;99.90
5560;DHT22;2803;47.916;8.074;2023-08-01T02:56:16;19.40;99.90
5560;DHT22;2803;47.916;8.074;2023-08-01T02:58:43;19.20;99.90
5560;DHT22;2803;47.916;8.074;2023-08-01T03:01:10;19.20;99.90
5560;DHT22;2803;47.916;8.074;2023-08-01T03:03:39;19.60;99.90
5560;DHT22;2803;47.916;8.074;2023-08-01T03:06:07;19.70;99.90
5560;DHT22;2803;47.916;8.074;2023-08-01T03:08:34;20.00;99.90
5560;DHT22;2803;47.916;8.074;2023-08-01T03:11:00;20.20;99.90
5560;DHT22;2803;47.916;8.074;2023-08-01T03:13:27;20.10;99.90
5560;DHT22;2803;47.916;8.074;2023-08-01T03:15:54;20.10;99.90
5560;DHT22;2803;47.916;8.074;2023-08-01T03:18:20;20.00;99.90
5560;DHT22;2803;47.916;8.074;2023-08-01T03:20:48;20.00;99.90
5560;DHT22;2803;47.916;8.074;2023-08-01T03:23:17;19.80;99.90
5560;DHT22;2803;47.916;8.074;2023-08-01T03:25:43;19.40;99.90
5560;DHT22;2803;47.916;8.074;2023-08-01T03:28:10;19.20;99.90
5560;DHT22;2803;47.916;8.074;2023-08-01T03:30:37;19.20;99.90
5560;DHT22;2803;47.916;8.074;2023-08-01T03:33:03;19.20;99.90
5560;DHT22;2803;47.916;8.074;2023-08-01T03:35:30;19.60;99.90
5560;DHT22;2803;47.916;8.074;2023-08-01T03:37:58;19.90;99.90
5560;DHT22;2803;47.916;8.074;2023-08-01T03:40:25;19.80;99.90
5560;DHT22;2803;47.916;8.074;2023-08-01T03:42:52;19.10;99.90
5560;DHT22;2803;47.916;8.074;2023-08-01T03:45:18;19.30;99.90
5560;DHT22;2803;47.916;8.074;2023-08-01T03:47:45;19.10;99.90
5560;DHT22;2803;47.916;8.074;2023-08-01T03:50:12;19.20;99.90
5560;DHT22;2803;47.916;8.074;2023-08-01T03:52:39;19.20;99.90
5560;DHT22;2803;47.916;8.074;2023-08-01T03:55:07;19.00;99.90
5560;DHT22;2803;47.916;8.074;2023-08-01T03:57:34;18.90;99.90
5560;DHT22;2803;47.916;8.074;2023-08-01T04:00:01;19.20;99.90
5560;DHT22;2803;47.916;8.074;2023-08-01T04:02:28;19.30;99.90
5560;DHT22;2803;47.916;8.074;2023-08-01T04:04:55;19.60;99.90
5560;DHT22;2803;47.916;8.074;2023-08-01T04:07:21;19.90;99.90
5560;DHT22;2803;47.916;8.074;2023-08-01T04:09:48;19.90;99.90
5560;DHT22;2803;47.916;8.074;2023-08-01T04:12:16;20.00;99.90
5560;DHT22;2803;47.916;8.074;2023-08-01T04:14:43;19.90;99.90
5560;DHT22;2803;47.916;8.074;2023-08-01T04:17:10;20.30;99.90
5560;DHT22;2803;47.916;8.074;2023-08-01T04:19:36;20.50;99.90
5560;DHT22;2803;47.916;8.074;2023-08-01T04:22:03;20.60;99.90
5560;DHT22;2803;47.916;8.074;2023-08-01T04:24:30;20.60;99.90
5560;DHT22;2803;47.916;8.074;2023-08-01T04:26:56;20.70;99.90
5560;DHT22;2803;47.916;8.074;2023-08-01T04:29:24;20.40;99.90
5560;DHT22;2803;47.916;8.074;2023-08-01T04:31:51;20.40;99.90
5560;DHT22;2803;47.916;8.074;2023-08-01T04:34:18;19.70;99.90
5560;DHT22;2803;47.916;8.074;2023-08-01T04:36:44;19.30;99.90
5560;DHT22;2803;47.916;8.074;2023-08-01T04:39:11;19.10;99.90
5560;DHT22;2803;47.916;8.074;2023-08-01T04:41:38;19.60;99.90
5560;DHT22;2803;47.916;8.074;2023-08-01T04:44:04;19.90;99.90
5560;DHT22;2803;47.916;8.074;2023-08-01T04:46:33;20.00;99.90
5560;DHT22;2803;47.916;8.074;2023-08-01T04:48:59;20.10;99.90
5560;DHT22;2803;47.916;8.074;2023-08-01T04:51:26;20.20;99.90
5560;DHT22;2803;47.916;8.074;2023-08-01T04:53:53;20.10;99.90
5560;DHT22;2803;47.916;8.074;2023-08-01T04:56:19;19.40;99.90
5560;DHT22;2803;47.916;8.074;2023-08-01T04:58:46;19.40;99.90
5560;DHT22;2803;47.916;8.074;2023-08-01T05:01:13;19.80;99.90
5560;DHT22;2803;47.916;8.074;2023-08-01T05:03:41;20.10;99.90
5560;DHT22;2803;47.916;8.074;2023-08-01T05:06:07;20.30;99.90
5560;DHT22;2803;47.916;8.074;2023-08-01T05:08:34;20.10;99.90
5560;DHT22;2803;47.916;8.074;2023-08-01T05:11:01;19.50;99.90
5560;DHT22;2803;47.916;8.074;2023-08-01T05:13:28;19.60;99.90
5560;DHT22;2803;47.916;8.074;2023-08-01T05:15:54;19.90;99.90
5560;DHT22;2803;47.916;8.074;2023-08-01T05:18:21;19.90;99.90
5560;DHT22;2803;47.916;8.074;2023-08-01T05:20:49;19.80;99.90
5560;DHT22;2803;47.916;8.074;2023-08-01T05:23:16;19.80;99.90
5560;DHT22;2803;47.916;8.074;2023-08-01T05:25:42;19.50;99.90
5560;DHT22;2803;47.916;8.074;2023-08-01T05:28:09;19.30;99.90
5560;DHT22;2803;47.916;8.074;2023-08-01T05:30:37;18.90;99.90
5560;DHT22;2803;47.916;8.074;2023-08-01T05:33:04;18.70;99.90
5560;DHT22;2803;47.916;8.074;2023-08-01T05:35:30;19.00;99.90
5560;DHT22;2803;47.916;8.074;2023-08-01T05:37:58;18.70;99.90
5560;DHT22;2803;47.916;8.074;2023-08-01T05:40:25;17.90;99.90
5560;DHT22;2803;47.916;8.074;2023-08-01T05:42:52;18.20;99.90
5560;DHT22;2803;47.916;8.074;2023-08-01T05:45:18;17.90;99.90
5560;DHT22;2803;47.916;8.074;2023-08-01T05:47:45;17.70;99.90
5560;DHT22;2803;47.916;8.074;2023-08-01T05:50:12;17.50;99.90
5560;DHT22;2803;47.916;8.074;2023-08-01T05:52:38;17.60;99.90
5560;DHT22;2803;47.916;8.074;2023-08-01T05:55:07;17.90;99.90
5560;DHT22;2803;47.916;8.074;2023-08-01T05:57:33;18.50;99.90
5560;DHT22;2803;47.916;8.074;2023-08-01T06:00:00;18.80;99.90
5560;DHT22;2803;47.916;8.074;2023-08-01T06:02:27;18.70;99.90
5560;DHT22;2803;47.916;8.074;2023-08-01T06:04:53;18.60;99.90
5560;DHT22;2803;47.916;8.074;2023-08-01T06:07:20;18.50;99.90
5560;DHT22;2803;47.916;8.074;2023-08-01T06:09:48;18.50;99.90
5560;DHT22;2803;47.916;8.074;2023-08-01T06:12:17;18.60;99.90
5560;DHT22;2803;47.916;8.074;2023-08-01T06:14:43;18.70;99.90
5560;DHT22;2803;47.916;8.074;2023-08-01T06:17:11;18.90;99.90
5560;DHT22;2803;47.916;8.074;2023-08-01T06:19:38;19.00;99.90
5560;DHT22;2803;47.916;8.074;2023-08-01T06:22:05;18.90;99.90
5560;DHT22;2803;47.916;8.074;2023-08-01T06:24:32;18.90;99.90
5560;DHT22;2803;47.916;8.074;2023-08-01T06:26:58;18.80;99.90
5560;DHT22;2803;47.916;8.074;2023-08-01T06:29:26;18.90;99.90
5560;DHT22;2803;47.916;8.074;2023-08-01T06:31:53;19.40;99.90
5560;DHT22;2803;47.916;8.074;2023-08-01T06:34:19;19.10;99.90
5560;DHT22;2803;47.916;8.074;2023-08-01T06:36:46;19.30;99.90
5560;DHT22;2803;47.916;8.074;2023-08-01T06:39:13;19.60;99.90
5560;DHT22;2803;47.916;8.074;2023-08-01T06:41:40;19.10;99.90
5560;DHT22;2803;47.916;8.074;2023-08-01T06:44:07;18.50;99.90
5560;DHT22;2803;47.916;8.074;2023-08-01T06:46:34;18.60;99.90
5560;DHT22;2803;47.916;8.074;2023-08-01T06:49:01;19.10;99.90
5560;DHT22;2803;47.916;8.074;2023-08-01T06:51:31;19.20;99.90
5560;DHT22;2803;47.916;8.074;2023-08-01T06:53:58;19.50;99.90
5560;DHT22;2803;47.916;8.074;2023-08-01T06:56:25;19.70;99.90
5560;DHT22;2803;47.916;8.074;2023-08-01T06:58:51;19.70;99.90
5560;DHT22;2803;47.916;8.074;2023-08-01T07:01:18;20.00;99.90
5560;DHT22;2803;47.916;8.074;2023-08-01T07:03:46;20.00;99.90
5560;DHT22;2803;47.916;8.074;2023-08-01T07:06:13;19.20;99.90
5560;DHT22;2803;47.916;8.074;2023-08-01T07:08:39;19.20;99.90
5560;DHT22;2803;47.916;8.074;2023-08-01T07:11:06;19.70;99.90
5560;DHT22;2803;47.916;8.074;2023-08-01T07:13:33;20.00;99.90
5560;DHT22;2803;47.916;8.074;2023-08-01T07:15:59;20.10;99.90
5560;DHT22;2803;47.916;8.074;2023-08-01T07:18:26;20.30;99.90
5560;DHT22;2803;47.916;8.074;2023-08-01T07:21:01;20.00;99.90
5560;DHT22;2803;47.916;8.074;2023-08-01T07:23:28;19.90;99.90
5560;DHT22;2803;47.916;8.074;2023-08-01T07:25:54;20.00;99.90
5560;DHT22;2803;47.916;8.074;2023-08-01T07:28:21;20.00;99.90
5560;DHT22;2803;47.916;8.074;2023-08-01T07:30:47;20.20;99.90
5560;DHT22;2803;47.916;8.074;2023-08-01T07:33:14;20.60;99.90
5560;DHT22;2803;47.916;8.074;2023-08-01T07:35:41;20.50;99.90
5560;DHT22;2803;47.916;8.074;2023-08-01T07:38:09;20.60;99.90
5560;DHT22;2803;47.916;8.074;2023-08-01T07:40:36;19.90;99.90
5560;DHT22;2803;47.916;8.074;2023-08-01T07:43:03;20.00;99.90
5560;DHT22;2803;47.916;8.074;2023-08-01T07:45:32;20.30;99.90
5560;DHT22;2803;47.916;8.074;2023-08-01T07:47:59;20.40;99.90
5560;DHT22;2803;47.916;8.074;2023-08-01T07:50:26;19.80;99.90
5560;DHT22;2803;47.916;8.074;2023-08-01T07:52:53;19.70;99.90
5560;DHT22;2803;47.916;8.074;2023-08-01T07:55:21;19.60;99.90
5560;DHT22;2803;47.916;8.074;2023-08-01T07:57:47;19.80;99.90
5560;DHT22;2803;47.916;8.074;2023-08-01T08:00:14;20.00;99.90
5560;DHT22;2803;47.916;8.074;2023-08-01T08:02:41;20.10;99.90
5560;DHT22;2803;47.916;8.074;2023-08-01T08:05:09;20.30;99.90
5560;DHT22;2803;47.916;8.074;2023-08-01T08:07:36;20.40;99.90
5560;DHT22;2803;47.916;8.074;2023-08-01T08:10:03;20.50;99.90
5560;DHT22;2803;47.916;8.074;2023-08-01T08:12:32;20.30;99.90
5560;DHT22;2803;47.916;8.074;2023-08-01T08:14:58;19.60;99.90
5560;DHT22;2803;47.916;8.074;2023-08-01T08:17:25;19.30;99.90
5560;DHT22;2803;47.916;8.074;2023-08-01T08:19:52;19.70;99.90
5560;DHT22;2803;47.916;8.074;2023-08-01T08:22:18;19.90;99.90
5560;DHT22;2803;47.916;8.074;2023-08-01T08:24:45;20.10;99.90
5560;DHT22;2803;47.916;8.074;2023-08-01T08:27:11;20.00;99.90
5560;DHT22;2803;47.916;8.074;2023-08-01T08:29:40;20.30;99.90
5560;DHT22;2803;47.916;8.074;2023-08-01T08:32:07;20.30;99.90
5560;DHT22;2803;47.916;8.074;2023-08-01T08:34:34;19.70;99.90
5560;DHT22;2803;47.916;8.074;2023-08-01T08:37:00;19.60;99.90
5560;DHT22;2803;47.916;8.074;2023-08-01T08:39:27;20.00;99.90
5560;DHT22;2803;47.916;8.074;2023-08-01T08:41:53;19.90;99.90
5560;DHT22;2803;47.916;8.074;2023-08-01T08:44:20;19.30;99.90
5560;DHT22;2803;47.916;8.074;2023-08-01T08:46:51;19.40;99.90
5560;DHT22;2803;47.916;8.074;2023-08-01T08:49:18;19.60;99.90
5560;DHT22;2803;47.916;8.074;2023-08-01T08:51:46;19.10;99.90
5560;DHT22;2803;47.916;8.074;2023-08-01T08:54:14;19.40;99.90
5560;DHT22;2803;47.916;8.074;2023-08-01T08:56:41;19.40;99.90
5560;DHT22;2803;47.916;8.074;2023-08-01T08:59:08;19.60;99.90
5560;DHT22;2803;47.916;8.074;2023-08-01T09:01:35;19.40;99.90
5560;DHT22;2803;47.916;8.074;2023-08-01T09:04:03;19.90;99.90
5560;DHT22;2803;47.916;8.074;2023-08-01T09:06:32;20.10;99.90
5560;DHT22;2803;47.916;8.074;2023-08-01T09:09:02;19.80;99.90
5560;DHT22;2803;47.916;8.074;2023-08-01T09:11:38;19.80;99.90
5560;DHT22;2803;47.916;8.074;2023-08-01T09:14:05;20.00;99.90
5560;DHT22;2803;47.916;8.074;2023-08-01T09:16:33;20.00;99.90
5560;DHT22;2803;47.916;8.074;2023-08-01T09:18:59;19.30;99.90
5560;DHT22;2803;47.916;8.074;2023-08-01T09:21:30;19.00;99.90
5560;DHT22;2803;47.916;8.074;2023-08-01T09:24:07;18.70;99.90
5560;DHT22;2803;47.916;8.074;2023-08-01T09:26:33;18.90;99.90
5560;DHT22;2803;47.916;8.074;2023-08-01T09:29:00;19.00;99.90
5560;DHT22;2803;47.916;8.074;2023-08-01T09:31:28;18.50;99.90
5560;DHT22;2803;47.916;8.074;2023-08-01T09:33:54;19.20;99.90
5560;DHT22;2803;47.916;8.074;2023-08-01T09:36:21;19.10;99.90
5560;DHT22;2803;47.916;8.074;2023-08-01T09:38:50;19.50;99.90
5560;DHT22;2803;47.916;8.074;2023-08-01T09:41:17;19.60;99.90
5560;DHT22;2803;47.916;8.074;2023-08-01T09:43:45;19.30;99.90
5560;DHT22;2803;47.916;8.074;2023-08-01T09:46:13;19.20;99.90
5560;DHT22;2803;47.916;8.074;2023-08-01T09:48:40;19.20;99.90
5560;DHT22;2803;47.916;8.074;2023-08-01T09:51:07;18.90;99.90
5560;DHT22;2803;47.916;8.074;2023-08-01T09:53:35;18.80;99.90
5560;DHT22;2803;47.916;8.074;2023-08-01T09:56:03;18.70;99.90
5560;DHT22;2803;47.916;8.074;2023-08-01T09:58:32;19.00;99.90
5560;DHT22;2803;47.916;8.074;2023-08-01T10:00:59;19.60;99.90
5560;DHT22;2803;47.916;8.074;2023-08-01T10:03:28;19.60;99.90
5560;DHT22;2803;47.916;8.074;2023-08-01T10:05:55;20.00;99.90
5560;DHT22;2803;47.916;8.074;2023-08-01T10:08:22;20.10;99.90
5560;DHT22;2803;47.916;8.074;2023-08-01T10:10:49;20.50;99.90
5560;DHT22;2803;47.916;8.074;2023-08-01T10:13:19;20.30;99.90
5560;DHT22;2803;47.916;8.074;2023-08-01T10:15:47;19.90;99.90
5560;DHT22;2803;47.916;8.074;2023-08-01T10:18:14;20.40;99.90
5560;DHT22;2803;47.916;8.074;2023-08-01T10:20:42;20.60;99.90
5560;DHT22;2803;47.916;8.074;2023-08-01T10:23:09;20.50;99.90
5560;DHT22;2803;47.916;8.074;2023-08-01T10:25:37;20.20;99.90
5560;DHT22;2803;47.916;8.074;2023-08-01T10:28:05;20.20;99.90
5560;DHT22;2803;47.916;8.074;2023-08-01T10:30:33;20.10;99.90
5560;DHT22;2803;47.916;8.074;2023-08-01T10:33:00;20.50;99.90
5560;DHT22;2803;47.916;8.074;2023-08-01T10:35:35;20.60;99.90
5560;DHT22;2803;47.916;8.074;2023-08-01T10:38:04;19.90;99.90
5560;DHT22;2803;47.916;8.074;2023-08-01T10:40:34;19.50;99.90
5560;DHT22;2803;47.916;8.074;2023-08-01T10:43:00;19.90;99.90
5560;DHT22;2803;47.916;8.074;2023-08-01T10:45:27;20.00;99.90
5560;DHT22;2803;47.916;8.074;2023-08-01T10:48:06;19.80;99.90
5560;DHT22;2803;47.916;8.074;2023-08-01T10:50:33;20.20;99.90
5560;DHT22;2803;47.916;8.074;2023-08-01T10:53:03;20.70;99.90
5560;DHT22;2803;47.916;8.074;2023-08-01T10:55:39;20.30;99.90
5560;DHT22;2803;47.916;8.074;2023-08-01T10:58:07;20.30;99.90
5560;DHT22;2803;47.916;8.074;2023-08-01T11:00:34;20.10;99.90
5560;DHT22;2803;47.916;8.074;2023-08-01T11:03:02;20.00;99.90
5560;DHT22;2803;47.916;8.074;2023-08-01T11:05:29;20.00;99.90
5560;DHT22;2803;47.916;8.074;2023-08-01T11:07:57;20.00;99.90
5560;DHT22;2803;47.916;8.074;2023-08-01T11:10:25;19.70;99.90
5560;DHT22;2803;47.916;8.074;2023-08-01T11:12:52;19.90;99.90
5560;DHT22;2803;47.916;8.074;2023-08-01T11:15:19;19.80;99.90
5560;DHT22;2803;47.916;8.074;2023-08-01T11:17:47;20.40;99.90
5560;DHT22;2803;47.916;8.074;2023-08-01T11:20:17;20.90;99.90
5560;DHT22;2803;47.916;8.074;2023-08-01T11:22:53;21.00;99.90
5560;DHT22;2803;47.916;8.074;2023-08-01T11:25:30;21.40;99.90
5560;DHT22;2803;47.916;8.074;2023-08-01T11:27:57;21.20;99.90
5560;DHT22;2803;47.916;8.074;2023-08-01T11:30:30;21.40;99.90
5560;DHT22;2803;47.916;8.074;2023-08-01T11:32:57;21.70;99.90
5560;DHT22;2803;47.916;8.074;2023-08-01T11:35:25;21.60;99.90
5560;DHT22;2803;47.916;8.074;2023-08-01T11:37:52;22.10;99.90
5560;DHT22;2803;47.916;8.074;2023-08-01T11:40:19;21.70;99.90
5560;DHT22;2803;47.916;8.074;2023-08-01T11:42:48;22.00;99.90
5560;DHT22;2803;47.916;8.074;2023-08-01T11:45:16;22.30;99.90
5560;DHT22;2803;47.916;8.074;2023-08-01T11:47:45;22.40;99.90
5560;DHT22;2803;47.916;8.074;2023-08-01T11:50:12;22.60;99.90
5560;DHT22;2803;47.916;8.074;2023-08-01T11:52:40;22.30;99.90
5560;DHT22;2803;47.916;8.074;2023-08-01T11:55:17;22.50;99.90
5560;DHT22;2803;47.916;8.074;2023-08-01T11:57:53;23.00;99.90
5560;DHT22;2803;47.916;8.074;2023-08-01T12:00:25;23.40;99.90
5560;DHT22;2803;47.916;8.074;2023-08-01T12:03:03;23.30;99.90
5560;DHT22;2803;47.916;8.074;2023-08-01T12:05:33;23.90;99.90
5560;DHT22;2803;47.916;8.074;2023-08-01T12:08:16;24.80;99.90
5560;DHT22;2803;47.916;8.074;2023-08-01T12:10:44;25.50;99.90
5560;DHT22;2803;47.916;8.074;2023-08-01T12:13:20;25.80;99.90
5560;DHT22;2803;47.916;8.074;2023-08-01T12:15:47;26.10;99.90
5560;DHT22;2803;47.916;8.074;2023-08-01T12:18:20;25.60;99.90
5560;DHT22;2803;47.916;8.074;2023-08-01T12:20:46;25.80;99.90
5560;DHT22;2803;47.916;8.074;2023-08-01T12:23:13;24.90;99.90
5560;DHT22;2803;47.916;8.074;2023-08-01T12:25:41;24.40;99.90
5560;DHT22;2803;47.916;8.074;2023-08-01T12:28:08;23.70;99.90
5560;DHT22;2803;47.916;8.074;2023-08-01T12:30:35;23.70;99.90
5560;DHT22;2803;47.916;8.074;2023-08-01T12:33:01;23.80;99.90
5560;DHT22;2803;47.916;8.074;2023-08-01T12:35:28;24.10;99.90
5560;DHT22;2803;47.916;8.074;2023-08-01T12:37:55;24.10;99.90
5560;DHT22;2803;47.916;8.074;2023-08-01T12:40:22;24.70;99.90
5560;DHT22;2803;47.916;8.074;2023-08-01T12:42:50;25.50;99.90
5560;DHT22;2803;47.916;8.074;2023-08-01T12:45:16;25.80;99.90
5560;DHT22;2803;47.916;8.074;2023-08-01T12:47:43;26.10;99.90
5560;DHT22;2803;47.916;8.074;2023-08-01T12:50:10;26.30;99.90
5560;DHT22;2803;47.916;8.074;2023-08-01T12:52:37;26.70;99.90
5560;DHT22;2803;47.916;8.074;2023-08-01T12:55:04;27.20;99.90
5560;DHT22;2803;47.916;8.074;2023-08-01T12:57:30;27.10;99.90
5560;DHT22;2803;47.916;8.074;2023-08-01T12:59:58;27.00;99.90
5560;DHT22;2803;47.916;8.074;2023-08-01T13:02:26;26.90;99.90
5560;DHT22;2803;47.916;8.074;2023-08-01T13:04:52;26.90;99.90
5560;DHT22;2803;47.916;8.074;2023-08-01T13:07:19;27.60;99.90
5560;DHT22;2803;47.916;8.074;2023-08-01T13:09:46;27.60;99.90
5560;DHT22;2803;47.916;8.074;2023-08-01T13:12:13;26.90;99.90
5560;DHT22;2803;47.916;8.074;2023-08-01T13:14:39;25.70;99.90
5560;DHT22;2803;47.916;8.074;2023-08-01T13:17:07;24.70;99.90
5560;DHT22;2803;47.916;8.074;2023-08-01T13:19:34;24.10;99.90
5560;DHT22;2803;47.916;8.074;2023-08-01T13:22:00;24.20;99.90
5560;DHT22;2803;47.916;8.074;2023-08-01T13:24:27;23.70;99.90
5560;DHT22;2803;47.916;8.074;2023-08-01T13:26:54;23.60;99.90
5560;DHT22;2803;47.916;8.074;2023-08-01T13:29:20;23.50;99.90
5560;DHT22;2803;47.916;8.074;2023-08-01T13:31:47;23.80;99.90
5560;DHT22;2803;47.916;8.074;2023-08-01T13:34:15;24.50;99.90
5560;DHT22;2803;47.916;8.074;2023-08-01T13:36:43;25.40;99.90
5560;DHT22;2803;47.916;8.074;2023-08-01T13:39:09;25.20;99.90
5560;DHT22;2803;47.916;8.074;2023-08-01T13:41:36;25.70;99.90
5560;DHT22;2803;47.916;8.074;2023-08-01T13:44:03;25.60;99.90
5560;DHT22;2803;47.916;8.074;2023-08-01T13:46:29;25.70;99.90
5560;DHT22;2803;47.916;8.074;2023-08-01T13:48:56;25.40;99.90
5560;DHT22;2803;47.916;8.074;2023-08-01T13:51:24;25.30;99.90
5560;DHT22;2803;47.916;8.074;2023-08-01T13:53:51;24.50;99.90
5560;DHT22;2803;47.916;8.074;2023-08-01T13:56:18;24.00;99.90
5560;DHT22;2803;47.916;8.074;2023-08-01T13:58:45;23.70;99.90
5560;DHT22;2803;47.916;8.074;2023-08-01T14:01:11;23.30;99.90
5560;DHT22;2803;47.916;8.074;2023-08-01T14:03:39;22.90;99.90
5560;DHT22;2803;47.916;8.074;2023-08-01T14:06:06;23.10;99.90
5560;DHT22;2803;47.916;8.074;2023-08-01T14:08:34;23.20;99.90
5560;DHT22;2803;47.916;8.074;2023-08-01T14:11:03;22.10;99.90
5560;DHT22;2803;47.916;8.074;2023-08-01T14:13:30;22.20;99.90
5560;DHT22;2803;47.916;8.074;2023-08-01T14:15:57;22.10;99.90
5560;DHT22;2803;47.916;8.074;2023-08-01T14:18:23;21.90;99.90
5560;DHT22;2803;47.916;8.074;2023-08-01T14:20:50;22.00;99.90
5560;DHT22;2803;47.916;8.074;2023-08-01T14:23:18;22.20;99.90
5560;DHT22;2803;47.916;8.074;2023-08-01T14:25:46;22.40;99.90
5560;DHT22;2803;47.916;8.074;2023-08-01T14:28:14;22.60;99.90
5560;DHT22;2803;47.916;8.074;2023-08-01T14:30:40;23.30;99.90
5560;DHT22;2803;47.916;8.074;2023-08-01T14:33:08;23.10;99.90
5560;DHT22;2803;47.916;8.074;2023-08-01T14:35:35;23.10;99.90
5560;DHT22;2803;47.916;8.074;2023-08-01T14:38:02;23.20;99.90
5560;DHT22;2803;47.916;8.074;2023-08-01T14:40:29;23.40;99.90
5560;DHT22;2803;47.916;8.074;2023-08-01T14:42:57;23.60;99.90
5560;DHT22;2803;47.916;8.074;2023-08-01T14:45:25;23.40;99.90
5560;DHT22;2803;47.916;8.074;2023-08-01T14:47:51;23.10;99.90
5560;DHT22;2803;47.916;8.074;2023-08-01T14:50:18;23.20;99.90
5560;DHT22;2803;47.916;8.074;2023-08-01T14:52:45;23.30;99.90
5560;DHT22;2803;47.916;8.074;2023-08-01T14:55:12;23.60;99.90
5560;DHT22;2803;47.916;8.074;2023-08-01T14:57:39;23.60;99.90
5560;DHT22;2803;47.916;8.074;2023-08-01T15:00:07;23.60;99.90
5560;DHT22;2803;47.916;8.074;2023-08-01T15:02:35;23.60;99.90
5560;DHT22;2803;47.916;8.074;2023-08-01T15:05:02;23.80;99.90
5560;DHT22;2803;47.916;8.074;2023-08-01T15:07:29;24.00;99.90
5560;DHT22;2803;47.916;8.074;2023-08-01T15:09:55;23.80;99.90
5560;DHT22;2803;47.916;8.074;2023-08-01T15:12:21;24.10;99.90
5560;DHT22;2803;47.916;8.074;2023-08-01T15:14:50;23.70;99.90
5560;DHT22;2803;47.916;8.074;2023-08-01T15:17:18;23.70;99.90
5560;DHT22;2803;47.916;8.074;2023-08-01T15:19:44;23.10;99.90
5560;DHT22;2803;47.916;8.074;2023-08-01T15:22:12;23.00;99.90
5560;DHT22;2803;47.916;8.074;2023-08-01T15:24:39;23.00;99.90
5560;DHT22;2803;47.916;8.074;2023-08-01T15:27:06;22.60;99.90
5560;DHT22;2803;47.916;8.074;2023-08-01T15:29:32;22.50;99.90
5560;DHT22;2803;47.916;8.074;2023-08-01T15:31:59;22.60;99.90
5560;DHT22;2803;47.916;8.074;2023-08-01T15:34:27;22.40;99.90
5560;DHT22;2803;47.916;8.074;2023-08-01T15:36:54;22.20;99.90
5560;DHT22;2803;47.916;8.074;2023-08-01T15:39:20;21.90;99.90
5560;DHT22;2803;47.916;8.074;2023-08-01T15:41:47;22.00;99.90
5560;DHT22;2803;47.916;8.074;2023-08-01T15:44:14;21.80;99.90
5560;DHT22;2803;47.916;8.074;2023-08-01T15:46:41;22.30;99.90
5560;DHT22;2803;47.916;8.074;2023-08-01T15:49:07;22.70;99.90
5560;DHT22;2803;47.916;8.074;2023-08-01T15:51:35;22.70;99.90
5560;DHT22;2803;47.916;8.074;2023-08-01T15:54:02;22.20;99.90
5560;DHT22;2803;47.916;8.074;2023-08-01T15:56:29;22.30;99.90
5560;DHT22;2803;47.916;8.074;2023-08-01T15:58:56;22.00;99.90
5560;DHT22;2803;47.916;8.074;2023-08-01T16:01:22;22.00;99.90
5560;DHT22;2803;47.916;8.074;2023-08-01T16:03:49;22.20;99.90